Time;durP1;ratioP1;P1;durP2;ratioP2;P2;SDS_P1;SDS_P2;PMS_P1;PMS_P2;Temp;Humidity;BMP_temperature;BMP_pressure;BME280_temperature;BME280_humidity;BME280_pressure;Samples;Min_cycle;Max_cycle;Signal;HPM_P1;HPM_P2
2021/10/08 00:04:00;;;;;;;4.30;1.77;;;;;;;;;;10379243;28;20444;-80
2021/10/08 00:09:00;;;;;;;9.60;2.10;;;;;;;;;;10370470;28;20460;-80
2021/10/08 00:14:01;;;;;;;8.38;2.28;;;;;;;;;;10377151;28;20034;-81
2021/10/08 00:19:02;;;;;;;4.27;1.83;;;;;;;;;;10384602;28;20030;-81
2021/10/08 00:24:02;;;;;;;9.98;2.10;;;;;;;;;;10377725;28;20451;-82
2021/10/08 00:29:03;;;;;;;9.60;2.35;;;;;;;;;;10372589;28;20052;-81
2021/10/08 00:34:03;;;;;;;6.53;2.10;;;;;;;;;;10377347;28;20037;-81
2021/10/08 00:39:04;;;;;;;5.90;1.77;;;;;;;;;;10376230;28;20034;-80
2021/10/08 00:44:04;;;;;;;9.00;2.20;;;;;;;;;;10376978;28;20124;-80
2021/10/08 00:49:05;;;;;;;4.73;1.70;;;;;;;;;;10377039;28;20040;-81
2021/10/08 00:54:05;;;;;;;11.30;1.93;;;;;;;;;;10377168;28;20057;-80
2021/10/08 00:59:06;;;;;;;7.23;1.97;;;;;;;;;;10376947;28;20463;-80
2021/10/08 01:04:07;;;;;;;3.83;1.90;;;;;;;;;;10374522;28;20519;-80
2021/10/08 01:09:08;;;;;;;7.93;1.70;;;;;;;;;;10358000;28;20038;-80
2021/10/08 01:14:08;;;;;;;8.03;1.77;;;;;;;;;;10390388;28;20467;-80
2021/10/08 01:19:10;;;;;;;5.97;1.83;;;;;;;;;;10375622;28;20444;-80
2021/10/08 01:24:10;;;;;;;6.32;1.77;;;;;;;;;;10376366;28;20044;-80
2021/10/08 01:29:11;;;;;;;3.55;1.52;;;;;;;;;;10375692;28;20034;-81
2021/10/08 01:34:11;;;;;;;7.07;1.77;;;;;;;;;;10367745;28;20072;-80
2021/10/08 01:39:12;;;;;;;5.90;2.27;;;;;;;;;;10377738;28;20033;-80
2021/10/08 01:44:12;;;;;;;4.70;1.73;;;;;;;;;;10380138;28;20121;-81
2021/10/08 01:49:12;;;;;;;4.97;1.90;;;;;;;;;;10397067;28;20474;-81
2021/10/08 01:54:13;;;;;;;4.73;1.50;;;;;;;;;;10396596;28;20033;-81
2021/10/08 01:59:14;;;;;;;23.63;1.90;;;;;;;;;;10414605;28;20052;-82
2021/10/08 02:04:15;;;;;;;4.90;1.45;;;;;;;;;;10414555;28;20049;-81
2021/10/08 02:09:16;;;;;;;2.65;1.40;;;;;;;;;;10416425;28;20042;-81
2021/10/08 02:14:16;;;;;;;4.97;1.40;;;;;;;;;;10412641;28;20041;-80
2021/10/08 02:19:16;;;;;;;6.23;1.47;;;;;;;;;;10415093;28;20030;-81
2021/10/08 02:24:17;;;;;;;5.20;1.30;;;;;;;;;;10415061;28;20817;-81
2021/10/08 02:29:17;;;;;;;3.90;1.70;;;;;;;;;;10408514;28;20387;-80
2021/10/08 02:34:18;;;;;;;3.40;1.20;;;;;;;;;;10414779;28;20116;-80
2021/10/08 02:39:18;;;;;;;6.72;1.35;;;;;;;;;;10414816;28;20079;-80
2021/10/08 02:44:19;;;;;;;4.47;1.60;;;;;;;;;;10406820;28;20558;-80
2021/10/08 02:49:21;;;;;;;4.10;1.65;;;;;;;;;;10373673;28;20435;-80
2021/10/08 02:54:22;;;;;;;5.38;1.80;;;;;;;;;;10373177;28;20034;-80
2021/10/08 02:59:22;;;;;;;3.47;1.33;;;;;;;;;;10373232;28;20026;-80
2021/10/08 03:04:23;;;;;;;4.90;1.80;;;;;;;;;;10372461;28;20037;-80
2021/10/08 03:09:23;;;;;;;4.00;1.27;;;;;;;;;;10373392;28;20037;-80
2021/10/08 03:14:24;;;;;;;6.95;1.38;;;;;;;;;;10372227;28;20042;-80
2021/10/08 03:19:24;;;;;;;3.28;1.30;;;;;;;;;;10387099;28;20460;-81
2021/10/08 03:24:25;;;;;;;3.10;1.20;;;;;;;;;;10372717;28;20041;-81
2021/10/08 03:29:25;;;;;;;3.95;1.45;;;;;;;;;;10380756;28;20468;-81
2021/10/08 03:34:26;;;;;;;2.17;1.10;;;;;;;;;;10380145;28;20391;-81
2021/10/08 03:39:30;;;;;;;4.00;1.37;;;;;;;;;;10379830;28;20538;-80
2021/10/08 03:44:36;;;;;;;4.47;1.25;;;;;;;;;;10402751;28;20463;-81
2021/10/08 03:49:37;;;;;;;3.35;1.48;;;;;;;;;;10421243;28;20037;-81
2021/10/08 03:54:37;;;;;;;2.57;1.30;;;;;;;;;;10420376;28;20037;-81
2021/10/08 03:59:37;;;;;;;4.33;1.70;;;;;;;;;;10419499;28;20407;-81
2021/10/08 04:04:39;;;;;;;2.10;1.10;;;;;;;;;;10419392;28;20431;-80
2021/10/08 04:09:40;;;;;;;4.22;1.30;;;;;;;;;;10419848;28;20117;-80
2021/10/08 04:14:40;;;;;;;2.53;1.07;;;;;;;;;;10419819;28;20117;-81
2021/10/08 04:19:40;;;;;;;3.17;1.20;;;;;;;;;;10418358;28;20418;-80
2021/10/08 04:24:41;;;;;;;3.20;1.10;;;;;;;;;;10419320;28;20037;-80
2021/10/08 04:29:41;;;;;;;3.23;1.27;;;;;;;;;;10418976;28;20075;-81
2021/10/08 04:34:41;;;;;;;4.20;1.20;;;;;;;;;;10418495;28;20033;-81
2021/10/08 04:39:42;;;;;;;7.60;1.27;;;;;;;;;;10417760;28;20120;-81
2021/10/08 04:44:42;;;;;;;2.63;1.10;;;;;;;;;;10418796;28;20049;-80
2021/10/08 04:49:43;;;;;;;3.37;1.40;;;;;;;;;;10417647;28;20041;-81
2021/10/08 04:54:43;;;;;;;2.93;1.40;;;;;;;;;;10418467;28;20591;-81
2021/10/08 04:59:43;;;;;;;4.20;1.50;;;;;;;;;;10417291;28;20467;-82
2021/10/08 05:04:44;;;;;;;1.30;1.10;;;;;;;;;;10416812;28;20964;-79
2021/10/08 05:09:44;;;;;;;1.90;1.00;;;;;;;;;;10417217;28;20045;-81
2021/10/08 05:14:44;;;;;;;2.80;1.20;;;;;;;;;;10411856;28;20128;-80
2021/10/08 05:19:45;;;;;;;8.63;2.10;;;;;;;;;;10408640;28;20415;-77
2021/10/08 05:24:46;;;;;;;2.95;1.35;;;;;;;;;;10413275;28;20376;-77
2021/10/08 05:29:46;;;;;;;2.83;0.95;;;;;;;;;;10398203;28;20492;-77
2021/10/08 05:34:47;;;;;;;3.45;1.10;;;;;;;;;;10392027;28;20037;-77
2021/10/08 05:39:47;;;;;;;12.82;1.30;;;;;;;;;;10390584;28;20035;-77
2021/10/08 05:44:48;;;;;;;3.27;1.10;;;;;;;;;;10392925;28;20068;-77
2021/10/08 05:49:48;;;;;;;4.33;1.37;;;;;;;;;;10407813;28;20727;-78
2021/10/08 05:54:49;;;;;;;7.80;1.40;;;;;;;;;;10415417;28;20468;-79
2021/10/08 05:59:49;;;;;;;2.60;1.08;;;;;;;;;;10414530;28;20497;-80
2021/10/08 06:04:50;;;;;;;8.80;1.23;;;;;;;;;;10406858;28;20463;-78
2021/10/08 06:09:50;;;;;;;10.88;1.40;;;;;;;;;;10415505;28;20033;-80
2021/10/08 06:14:52;;;;;;;13.27;1.52;;;;;;;;;;10406097;28;20041;-80
2021/10/08 06:19:52;;;;;;;13.20;1.77;;;;;;;;;;10409361;28;20033;-80
2021/10/08 06:24:52;;;;;;;8.23;1.33;;;;;;;;;;10413393;28;20456;-80
2021/10/08 06:29:53;;;;;;;7.83;1.87;;;;;;;;;;10413060;28;20423;-80
2021/10/08 06:34:53;;;;;;;13.20;1.53;;;;;;;;;;10414360;28;20419;-80
2021/10/08 06:39:53;;;;;;;7.43;1.10;;;;;;;;;;10414005;28;20532;-80
2021/10/08 06:44:56;;;;;;;4.60;1.30;;;;;;;;;;10414360;28;20529;-80
2021/10/08 06:49:56;;;;;;;3.03;1.23;;;;;;;;;;10413696;28;20360;-80
2021/10/08 06:54:57;;;;;;;2.25;1.23;;;;;;;;;;10414384;28;20026;-80
2021/10/08 06:59:57;;;;;;;6.40;1.43;;;;;;;;;;10416176;28;20034;-81
2021/10/08 07:04:58;;;;;;;4.28;1.20;;;;;;;;;;10421693;28;20455;-80
2021/10/08 07:09:58;;;;;;;7.03;1.40;;;;;;;;;;10422174;28;20041;-80
2021/10/08 07:15:01;;;;;;;1.17;0.90;;;;;;;;;;10403493;28;20032;-79
2021/10/08 07:20:01;;;;;;;3.95;1.25;;;;;;;;;;10421055;28;20999;-80
2021/10/08 07:25:12;;;;;;;1.67;1.00;;;;;;;;;;10405696;28;20033;-81
2021/10/08 07:30:12;;;;;;;2.83;1.40;;;;;;;;;;10384690;28;20814;-81
2021/10/08 07:35:14;;;;;;;2.03;0.93;;;;;;;;;;10398015;28;20030;-81
2021/10/08 07:40:15;;;;;;;2.22;1.05;;;;;;;;;;10382264;28;20048;-81
2021/10/08 07:45:15;;;;;;;1.92;1.20;;;;;;;;;;10397723;23;20061;-81
2021/10/08 07:50:16;;;;;;;3.85;1.33;;;;;;;;;;10418579;28;20029;-80
2021/10/08 07:55:16;;;;;;;2.83;1.10;;;;;;;;;;10419050;28;20367;-80
2021/10/08 08:00:17;;;;;;;1.63;1.00;;;;;;;;;;10418390;28;20072;-80
2021/10/08 08:05:20;;;;;;;2.93;0.90;;;;;;;;;;10418429;28;20032;-81
2021/10/08 08:10:22;;;;;;;1.42;0.95;;;;;;;;;;10417273;28;21966;-81
2021/10/08 08:15:22;;;;;;;2.08;1.17;;;;;;;;;;10419078;28;20156;-81
2021/10/08 08:20:23;;;;;;;3.47;1.27;;;;;;;;;;10418755;28;20116;-81
2021/10/08 08:25:23;;;;;;;1.77;1.10;;;;;;;;;;10417906;28;20021;-81
2021/10/08 08:30:24;;;;;;;5.22;1.00;;;;;;;;;;10417673;28;20115;-81
2021/10/08 08:35:24;;;;;;;4.47;1.23;;;;;;;;;;10415819;28;20497;-80
2021/10/08 08:40:28;;;;;;;3.90;1.13;;;;;;;;;;10416606;28;20112;-81
2021/10/08 08:45:30;;;;;;;2.72;1.13;;;;;;;;;;10442593;28;20033;-80
2021/10/08 08:50:32;;;;;;;2.38;0.90;;;;;;;;;;10458790;28;20043;-80
2021/10/08 08:55:33;;;;;;;2.20;0.95;;;;;;;;;;10456949;28;20029;-80
2021/10/08 09:00:34;;;;;;;1.95;1.00;;;;;;;;;;10457534;28;20021;-81
2021/10/08 09:05:36;;;;;;;1.92;1.25;;;;;;;;;;10456834;28;20102;-80
2021/10/08 09:10:39;;;;;;;1.83;0.93;;;;;;;;;;10457343;28;20040;-81
2021/10/08 09:15:45;;;;;;;3.00;1.13;;;;;;;;;;10457201;28;20021;-80
2021/10/08 09:21:07;;;;;;;1.52;1.15;;;;;;;;;;10457514;28;20048;-80
2021/10/08 09:26:21;;;;;;;1.02;0.93;;;;;;;;;;10455659;28;20128;-81
2021/10/08 09:31:41;;;;;;;2.60;1.08;;;;;;;;;;10456064;28;20068;-81
2021/10/08 09:36:45;;;;;;;1.85;0.93;;;;;;;;;;10444801;28;20082;-80
2021/10/08 09:41:54;;;;;;;3.45;1.05;;;;;;;;;;10456784;28;20032;-80
2021/10/08 09:47:11;;;;;;;4.07;1.20;;;;;;;;;;10445650;28;20051;-81
2021/10/08 09:52:26;;;;;;;4.78;1.35;;;;;;;;;;10439877;28;20029;-80
2021/10/08 09:57:27;;;;;;;7.10;1.20;;;;;;;;;;10455897;28;20064;-80
2021/10/08 10:02:28;;;;;;;1.83;1.10;;;;;;;;;;10455932;28;20036;-80
2021/10/08 10:07:28;;;;;;;3.17;1.03;;;;;;;;;;10456462;28;20025;-80
2021/10/08 10:12:29;;;;;;;2.47;1.30;;;;;;;;;;10454554;28;20436;-81
2021/10/08 10:17:29;;;;;;;2.17;1.30;;;;;;;;;;10454903;28;20549;-80
2021/10/08 10:22:31;;;;;;;1.50;1.30;;;;;;;;;;10461991;28;20107;-81
2021/10/08 10:27:32;;;;;;;2.10;1.20;;;;;;;;;;10432028;28;20020;-83
2021/10/08 10:32:33;;;;;;;3.08;1.10;;;;;;;;;;10454989;28;20025;-82
2021/10/08 10:37:41;;;;;;;1.67;1.17;;;;;;;;;;10444566;28;20025;-83
2021/10/08 10:42:42;;;;;;;4.07;1.50;;;;;;;;;;10463941;28;20041;-83
2021/10/08 10:47:44;;;;;;;1.52;1.02;;;;;;;;;;10463997;28;20029;-82
2021/10/08 10:52:53;;;;;;;5.40;1.30;;;;;;;;;;10463679;28;20098;-82
2021/10/08 10:57:56;;;;;;;1.42;1.17;;;;;;;;;;10445924;28;20159;-82
2021/10/08 11:03:16;;;;;;;4.60;1.38;;;;;;;;;;10463667;28;20037;-82
2021/10/08 11:08:17;;;;;;;1.73;1.15;;;;;;;;;;10463396;28;20071;-82
2021/10/08 11:13:22;;;;;;;1.55;1.20;;;;;;;;;;10445052;28;20021;-82
2021/10/08 11:18:36;;;;;;;1.58;1.20;;;;;;;;;;10462935;28;20017;-83
2021/10/08 11:23:38;;;;;;;1.10;1.00;;;;;;;;;;10463622;28;20033;-83
2021/10/08 11:28:44;;;;;;;1.33;1.20;;;;;;;;;;10445024;28;20147;-79
2021/10/08 11:33:49;;;;;;;3.47;1.42;;;;;;;;;;10462719;28;20167;-80
2021/10/08 11:39:06;;;;;;;4.50;1.13;;;;;;;;;;10462453;28;20370;-79
2021/10/08 11:44:24;;;;;;;1.25;1.10;;;;;;;;;;10461371;28;20124;-79
2021/10/08 11:54:31;;;;;;;2.53;1.42;;;;;;;;;;10461588;28;20048;-82
2021/10/08 11:59:32;;;;;;;5.03;1.20;;;;;;;;;;10461724;28;20025;-82
2021/10/08 12:04:32;;;;;;;1.92;1.20;;;;;;;;;;10460684;28;20439;-82
2021/10/08 12:09:33;;;;;;;1.20;1.10;;;;;;;;;;10460711;28;20025;-81
2021/10/08 12:14:33;;;;;;;2.47;1.27;;;;;;;;;;10460644;28;20056;-82
2021/10/08 12:19:35;;;;;;;1.83;1.10;;;;;;;;;;10454729;28;20033;-82
2021/10/08 12:24:35;;;;;;;4.38;1.20;;;;;;;;;;10452360;28;20116;-83
2021/10/08 12:29:47;;;;;;;1.93;1.17;;;;;;;;;;10459519;28;20148;-82
2021/10/08 12:34:49;;;;;;;2.70;1.10;;;;;;;;;;10460198;28;20032;-82
2021/10/08 12:40:10;;;;;;;3.13;1.30;;;;;;;;;;10459214;28;20064;-81
2021/10/08 12:45:20;;;;;;;4.95;1.50;;;;;;;;;;10453912;28;20041;-80
2021/10/08 12:50:22;;;;;;;3.22;1.30;;;;;;;;;;10458711;28;20406;-83
2021/10/08 12:55:31;;;;;;;2.08;1.20;;;;;;;;;;10454258;28;20372;-82
2021/10/08 13:00:46;;;;;;;1.42;1.30;;;;;;;;;;10453534;28;20021;-81
2021/10/08 13:05:48;;;;;;;4.65;1.38;;;;;;;;;;10456176;28;20025;-81
2021/10/08 13:11:08;;;;;;;2.55;1.40;;;;;;;;;;10452087;28;20044;-80
2021/10/08 13:16:09;;;;;;;3.28;1.58;;;;;;;;;;10458938;28;20459;-81
2021/10/08 13:21:11;;;;;;;2.45;1.40;;;;;;;;;;10442229;28;20366;-81
2021/10/08 13:26:11;;;;;;;4.93;1.40;;;;;;;;;;10459037;28;20029;-80
2021/10/08 13:31:13;;;;;;;3.45;1.30;;;;;;;;;;10457002;28;20021;-79
2021/10/08 13:36:13;;;;;;;3.40;1.60;;;;;;;;;;10456990;28;20111;-79
2021/10/08 13:41:14;;;;;;;1.35;1.20;;;;;;;;;;10455970;28;20116;-79
2021/10/08 13:46:14;;;;;;;4.37;1.50;;;;;;;;;;10453191;28;20394;-79
2021/10/08 13:51:16;;;;;;;5.13;1.93;;;;;;;;;;10457243;28;20098;-79
2021/10/08 13:56:18;;;;;;;4.20;1.40;;;;;;;;;;10456155;28;20461;-80
2021/10/08 14:01:18;;;;;;;7.30;1.85;;;;;;;;;;10454657;28;20021;-80
2021/10/08 14:11:35;;;;;;;3.00;1.67;;;;;;;;;;10455888;28;20491;-81
2021/10/08 14:16:35;;;;;;;3.25;1.60;;;;;;;;;;10456290;28;20036;-81
2021/10/08 14:21:35;;;;;;;3.53;1.30;;;;;;;;;;10456469;28;20112;-81
2021/10/08 14:26:36;;;;;;;5.70;1.40;;;;;;;;;;10456558;28;20029;-81
2021/10/08 14:31:36;;;;;;;5.70;1.67;;;;;;;;;;10456823;28;20516;-80
2021/10/08 14:36:37;;;;;;;5.67;2.13;;;;;;;;;;10455905;28;20486;-80
2021/10/08 14:41:37;;;;;;;5.53;1.60;;;;;;;;;;10455416;28;20458;-80
2021/10/08 14:46:37;;;;;;;7.90;1.90;;;;;;;;;;10455003;28;20497;-80
2021/10/08 14:51:43;;;;;;;11.70;1.90;;;;;;;;;;10455664;28;20021;-81
2021/10/08 14:57:00;;;;;;;4.25;1.80;;;;;;;;;;10453342;28;20995;-81
2021/10/08 15:02:00;;;;;;;3.38;1.83;;;;;;;;;;10453430;28;20061;-81
2021/10/08 15:07:01;;;;;;;9.13;2.13;;;;;;;;;;10452633;28;20052;-81
2021/10/08 15:12:05;;;;;;;5.60;2.10;;;;;;;;;;10452408;28;20029;-81
2021/10/08 15:17:06;;;;;;;5.70;2.00;;;;;;;;;;10450396;28;20063;-81
2021/10/08 15:22:06;;;;;;;4.25;1.85;;;;;;;;;;10457388;28;20423;-81
2021/10/08 15:27:07;;;;;;;2.60;1.58;;;;;;;;;;10457268;28;20037;-81
2021/10/08 15:32:07;;;;;;;6.23;2.13;;;;;;;;;;10461615;28;20029;-80
2021/10/08 15:37:07;;;;;;;10.07;2.07;;;;;;;;;;10460299;28;20020;-81
2021/10/08 15:42:09;;;;;;;5.30;1.83;;;;;;;;;;10461492;28;20033;-81
2021/10/08 15:47:09;;;;;;;6.22;1.90;;;;;;;;;;10459473;28;20048;-81
2021/10/08 15:52:10;;;;;;;5.53;2.20;;;;;;;;;;10461194;28;20021;-81
2021/10/08 15:57:11;;;;;;;6.95;2.33;;;;;;;;;;10461112;28;20104;-78
2021/10/08 16:02:11;;;;;;;6.03;2.57;;;;;;;;;;10461111;28;20021;-79
2021/10/08 16:07:11;;;;;;;4.40;2.13;;;;;;;;;;10461145;28;20029;-78
2021/10/08 16:12:12;;;;;;;3.25;1.80;;;;;;;;;;10460815;28;20525;-78
2021/10/08 16:17:16;;;;;;;3.73;2.20;;;;;;;;;;10460367;28;20116;-78
2021/10/08 16:22:17;;;;;;;8.88;2.13;;;;;;;;;;10457977;28;20033;-79
2021/10/08 16:27:17;;;;;;;5.60;2.65;;;;;;;;;;10460777;28;20032;-78
2021/10/08 16:32:18;;;;;;;5.25;2.42;;;;;;;;;;10458629;28;20091;-78
2021/10/08 16:37:18;;;;;;;3.93;2.07;;;;;;;;;;10458373;28;20046;-78
2021/10/08 16:42:19;;;;;;;4.50;1.87;;;;;;;;;;10459026;28;20024;-78
2021/10/08 16:47:19;;;;;;;2.90;2.10;;;;;;;;;;10459329;28;20466;-78
2021/10/08 16:52:20;;;;;;;6.47;2.43;;;;;;;;;;10458511;28;20442;-78
2021/10/08 16:57:21;;;;;;;3.65;2.10;;;;;;;;;;10458787;28;20583;-78
2021/10/08 17:02:21;;;;;;;3.67;2.23;;;;;;;;;;10455097;28;20061;-79
2021/10/08 17:07:31;;;;;;;4.38;2.40;;;;;;;;;;10470507;28;20036;-80
2021/10/08 17:12:31;;;;;;;5.03;2.03;;;;;;;;;;10459091;28;20112;-81
2021/10/08 17:17:32;;;;;;;2.70;2.08;;;;;;;;;;10458527;28;20128;-80
2021/10/08 17:22:35;;;;;;;2.93;2.10;;;;;;;;;;10459311;28;20037;-79
2021/10/08 17:27:44;;;;;;;3.80;2.17;;;;;;;;;;10455175;28;20033;-81
2021/10/08 17:38:03;;;;;;;;;;;;;;;;;;10446737;28;19963;-80
2021/10/08 17:43:04;;;;;;;8.07;2.50;;;;;;;;;;10457372;28;19971;-78
2021/10/08 17:48:06;;;;;;;5.07;2.25;;;;;;;;;;10456144;28;20467;-79
2021/10/08 17:53:11;;;;;;;5.90;2.00;;;;;;;;;;10452060;28;20035;-80
2021/10/08 17:58:12;;;;;;;4.63;2.20;;;;;;;;;;10463566;28;20071;-80
2021/10/08 18:03:12;;;;;;;3.88;2.20;;;;;;;;;;10456724;28;20029;-79
2021/10/08 18:08:14;;;;;;;3.35;2.15;;;;;;;;;;10451577;28;20078;-79
2021/10/08 18:13:15;;;;;;;3.40;1.90;;;;;;;;;;10454829;28;20029;-79
2021/10/08 18:18:15;;;;;;;2.70;1.93;;;;;;;;;;10455987;28;20032;-80
2021/10/08 18:23:17;;;;;;;12.05;2.10;;;;;;;;;;10456237;28;20481;-80
2021/10/08 18:28:18;;;;;;;3.00;1.80;;;;;;;;;;10455945;28;20040;-80
2021/10/08 18:33:18;;;;;;;4.97;2.22;;;;;;;;;;10465857;28;20048;-80
2021/10/08 18:38:19;;;;;;;6.40;2.40;;;;;;;;;;10447560;28;20025;-80
2021/10/08 18:43:19;;;;;;;4.05;1.80;;;;;;;;;;10453040;28;20140;-80
2021/10/08 18:48:20;;;;;;;2.35;1.85;;;;;;;;;;10455164;28;20033;-80
2021/10/08 18:53:20;;;;;;;3.97;1.80;;;;;;;;;;10448694;28;20033;-80
2021/10/08 18:58:21;;;;;;;3.40;2.17;;;;;;;;;;10462455;28;20067;-80
2021/10/08 19:03:21;;;;;;;6.63;2.10;;;;;;;;;;10455902;28;20029;-80
2021/10/08 19:08:24;;;;;;;3.87;1.90;;;;;;;;;;10453147;28;20036;-79
2021/10/08 19:13:28;;;;;;;4.65;2.40;;;;;;;;;;10463458;28;20438;-79
2021/10/08 19:18:39;;;;;;;2.22;1.92;;;;;;;;;;10458965;28;20025;-79
2021/10/08 19:23:40;;;;;;;3.90;2.10;;;;;;;;;;10461939;28;20122;-80
2021/10/08 19:28:41;;;;;;;3.05;2.17;;;;;;;;;;10466733;28;20410;-78
2021/10/08 19:33:41;;;;;;;3.33;2.17;;;;;;;;;;10462286;28;20040;-78
2021/10/08 19:38:42;;;;;;;6.78;2.35;;;;;;;;;;10462083;28;20170;-78
2021/10/08 19:43:43;;;;;;;5.47;2.20;;;;;;;;;;10511045;23;20178;-79
2021/10/08 19:48:43;;;;;;;5.55;2.67;;;;;;;;;;10460035;28;20112;-79
2021/10/08 19:53:44;;;;;;;3.37;1.93;;;;;;;;;;10463228;28;20399;-79
2021/10/08 19:58:45;;;;;;;6.45;2.22;;;;;;;;;;10463388;28;20461;-78
2021/10/08 20:03:50;;;;;;;8.38;2.35;;;;;;;;;;10463505;28;20045;-79
2021/10/08 20:14:09;;;;;;;14.57;3.13;;;;;;;;;;10465211;28;20033;-80
2021/10/08 20:19:09;;;;;;;12.27;3.42;;;;;;;;;;10485844;28;20041;-79
2021/10/08 20:24:10;;;;;;;8.70;3.20;;;;;;;;;;10493142;28;20025;-80
2021/10/08 20:29:13;;;;;;;8.77;2.73;;;;;;;;;;10489926;28;20063;-79
2021/10/08 20:34:14;;;;;;;14.85;2.92;;;;;;;;;;10490257;28;20029;-80
2021/10/08 20:39:15;;;;;;;7.93;2.97;;;;;;;;;;10488967;28;20033;-80
2021/10/08 20:44:15;;;;;;;6.43;2.80;;;;;;;;;;10457970;28;20052;-80
2021/10/08 20:49:16;;;;;;;3.67;2.40;;;;;;;;;;10440238;28;20037;-82
2021/10/08 20:54:16;;;;;;;6.82;3.10;;;;;;;;;;10443626;28;20108;-81
2021/10/08 20:59:17;;;;;;;5.95;3.10;;;;;;;;;;10434850;28;20147;-84
2021/10/08 21:04:17;;;;;;;10.90;3.30;;;;;;;;;;10437191;28;20043;-82
2021/10/08 21:09:17;;;;;;;16.60;3.07;;;;;;;;;;10437445;28;20123;-81
2021/10/08 21:14:18;;;;;;;12.13;3.27;;;;;;;;;;10443403;28;20029;-84
2021/10/08 21:19:18;;;;;;;7.40;2.83;;;;;;;;;;10446926;28;20060;-85
2021/10/08 21:24:18;;;;;;;15.23;3.57;;;;;;;;;;10446028;28;20463;-84
2021/10/08 21:29:20;;;;;;;10.20;2.45;;;;;;;;;;10450639;28;20035;-83
2021/10/08 21:34:24;;;;;;;8.43;2.70;;;;;;;;;;10458012;28;20032;-82
2021/10/08 21:39:51;;;;;;;14.15;3.05;;;;;;;;;;10468196;28;20020;-84
2021/10/08 22:19:11;;;;;;;53.72;5.40;;;;;;;;;;10411506;28;20620;-84
2021/10/08 22:34:13;;;;;;;33.63;3.80;;;;;;;;;;10425564;28;20056;-84
2021/10/08 22:39:14;;;;;;;25.45;2.95;;;;;;;;;;10411318;28;20056;-84
2021/10/08 22:44:14;;;;;;;23.52;3.83;;;;;;;;;;10410793;28;20113;-84
2021/10/08 22:49:16;;;;;;;19.27;3.57;;;;;;;;;;10409908;28;20029;-84
2021/10/08 22:54:19;;;;;;;21.67;3.20;;;;;;;;;;10423293;28;20048;-84
2021/10/08 22:59:19;;;;;;;19.88;3.40;;;;;;;;;;10392606;28;20109;-83
2021/10/08 23:04:20;;;;;;;16.67;3.13;;;;;;;;;;10409387;28;20471;-83
2021/10/08 23:19:45;;;;;;;22.73;3.45;;;;;;;;;;10409296;28;19935;-83
2021/10/08 23:24:45;;;;;;;14.07;2.88;;;;;;;;;;10409512;28;20030;-83
2021/10/08 23:29:46;;;;;;;12.68;3.00;;;;;;;;;;10384478;28;20030;-84
2021/10/08 23:34:46;;;;;;;16.70;3.40;;;;;;;;;;10381427;28;20127;-84
2021/10/08 23:39:47;;;;;;;9.87;3.03;;;;;;;;;;10394255;28;20026;-83
2021/10/08 23:44:47;;;;;;;17.87;3.10;;;;;;;;;;10380402;28;20096;-84
2021/10/08 23:49:47;;;;;;;16.47;3.10;;;;;;;;;;10379698;28;20029;-84
2021/10/08 23:54:48;;;;;;;8.93;3.10;;;;;;;;;;10380643;28;20062;-83
2021/10/08 23:59:48;;;;;;;12.83;3.27;;;;;;;;;;10380387;28;20030;-83
